Time;durP1;ratioP1;P1;durP2;ratioP2;P2;SDS_P1;SDS_P2;PMS_P1;PMS_P2;Temp;Humidity;BMP_temperature;BMP_pressure;BME280_temperature;BME280_humidity;BME280_pressure;Samples;Min_cycle;Max_cycle;Signal;HPM_P1;HPM_P2
2023/06/29 00:02:25;;;;;;;20.00;13.00;;;18.60;99.90;;;;;;5053594;28;20057;-76
2023/06/29 00:04:54;;;;;;;20.83;13.25;;;18.70;99.90;;;;;;5053053;28;20049;-76
2023/06/29 00:07:25;;;;;;;22.67;13.27;;;18.70;99.90;;;;;;5053580;28;20040;-76
2023/06/29 00:09:53;;;;;;;22.55;13.85;;;18.70;99.90;;;;;;5035560;28;20389;-75
2023/06/29 00:12:19;;;;;;;23.58;13.52;;;18.70;99.90;;;;;;5035080;28;20091;-76
2023/06/29 00:14:44;;;;;;;24.70;14.35;;;18.80;99.90;;;;;;5035216;28;20081;-76
2023/06/29 00:17:14;;;;;;;24.58;13.27;;;18.70;99.90;;;;;;5041797;28;20048;-77
2023/06/29 00:19:41;;;;;;;22.63;13.50;;;18.60;99.90;;;;;;5034876;28;20045;-76
2023/06/29 00:22:08;;;;;;;23.63;14.00;;;18.60;99.90;;;;;;5053414;28;20044;-76
2023/06/29 00:24:42;;;;;;;20.75;13.40;;;18.70;99.90;;;;;;5052728;28;20182;-76
2023/06/29 00:27:10;;;;;;;20.23;13.02;;;18.60;99.90;;;;;;5052905;28;20037;-76
2023/06/29 00:29:36;;;;;;;22.05;13.82;;;18.60;99.90;;;;;;5052736;28;20045;-76
2023/06/29 00:32:02;;;;;;;22.67;13.77;;;18.60;99.90;;;;;;5053110;28;20037;-76
2023/06/29 00:34:28;;;;;;;21.38;13.70;;;18.60;99.90;;;;;;5035605;28;20507;-76
2023/06/29 00:36:53;;;;;;;23.63;13.82;;;18.60;99.90;;;;;;5052346;28;20033;-76
2023/06/29 00:39:19;;;;;;;25.42;15.15;;;18.60;99.90;;;;;;5052222;28;20421;-77
2023/06/29 00:41:54;;;;;;;28.08;15.57;;;18.60;99.90;;;;;;5034437;28;20056;-76
2023/06/29 00:44:21;;;;;;;26.95;15.57;;;18.70;99.90;;;;;;5035340;28;20067;-76
2023/06/29 00:46:49;;;;;;;26.60;15.80;;;18.60;99.90;;;;;;5052274;28;20037;-76
2023/06/29 00:49:15;;;;;;;26.38;16.23;;;18.60;99.90;;;;;;5052465;28;20127;-76
2023/06/29 00:51:41;;;;;;;26.67;16.13;;;18.70;99.90;;;;;;5034468;28;20139;-76
2023/06/29 00:54:08;;;;;;;26.65;16.50;;;18.70;99.90;;;;;;5052184;28;20055;-76
2023/06/29 00:56:34;;;;;;;24.52;15.63;;;18.70;99.90;;;;;;5052404;28;20037;-76
2023/06/29 00:59:00;;;;;;;26.13;15.65;;;18.60;99.90;;;;;;5035008;28;20407;-76
2023/06/29 01:01:27;;;;;;;25.73;16.02;;;18.60;99.90;;;;;;5034720;28;20472;-76
2023/06/29 01:03:56;;;;;;;26.48;15.10;;;18.70;99.90;;;;;;5052781;28;20047;-76
2023/06/29 01:06:30;;;;;;;24.95;15.45;;;18.70;99.90;;;;;;5052316;28;20161;-76
2023/06/29 01:09:01;;;;;;;25.38;15.45;;;18.70;99.90;;;;;;5033827;28;20056;-76
2023/06/29 01:11:27;;;;;;;26.38;15.20;;;18.70;99.90;;;;;;5051712;28;20049;-76
2023/06/29 01:13:54;;;;;;;22.92;14.35;;;18.70;99.90;;;;;;5051803;28;20098;-76
2023/06/29 01:16:21;;;;;;;23.45;14.80;;;18.70;99.90;;;;;;5034862;28;20431;-76
2023/06/29 01:18:48;;;;;;;24.80;14.65;;;18.60;99.90;;;;;;5051959;28;20547;-75
2023/06/29 01:21:16;;;;;;;20.30;13.27;;;18.60;99.90;;;;;;5051967;28;20059;-76
2023/06/29 01:23:45;;;;;;;22.48;14.10;;;18.60;99.90;;;;;;5034338;28;20057;-75
2023/06/29 01:26:11;;;;;;;22.23;13.80;;;18.60;99.90;;;;;;5034419;28;20114;-75
2023/06/29 01:28:38;;;;;;;25.45;14.63;;;18.60;99.90;;;;;;5033701;28;20040;-75
2023/06/29 01:31:05;;;;;;;25.30;14.30;;;18.60;99.90;;;;;;5052496;28;20049;-76
2023/06/29 01:33:31;;;;;;;26.10;15.43;;;18.60;99.90;;;;;;5052244;28;20469;-76
2023/06/29 01:36:18;;;;;;;24.02;14.57;;;18.60;99.90;;;;;;5051377;28;20045;-76
2023/06/29 01:38:53;;;;;;;21.13;14.75;;;18.60;99.90;;;;;;5033993;28;20057;-76
2023/06/29 01:41:21;;;;;;;26.67;15.90;;;19.20;99.90;;;;;;5034448;28;20067;-76
2023/06/29 01:43:48;;;;;;;27.63;16.63;;;18.70;99.90;;;;;;5033960;28;20049;-76
2023/06/29 01:46:14;;;;;;;27.10;16.38;;;18.70;99.90;;;;;;5033821;28;20091;-76
2023/06/29 01:48:40;;;;;;;30.38;17.40;;;18.80;99.90;;;;;;5034124;28;20124;-76
2023/06/29 01:51:08;;;;;;;29.75;17.40;;;18.80;99.90;;;;;;5033427;28;20041;-76
2023/06/29 01:53:37;;;;;;;27.63;17.33;;;18.70;99.90;;;;;;5051228;28;20047;-76
2023/06/29 01:56:03;;;;;;;27.33;17.88;;;18.70;99.90;;;;;;5051798;28;20039;-77
2023/06/29 01:58:29;;;;;;;27.77;17.42;;;18.70;99.90;;;;;;5034548;28;20492;-76
2023/06/29 02:00:55;;;;;;;26.77;17.58;;;18.60;99.90;;;;;;5051522;28;20045;-76
2023/06/29 02:03:21;;;;;;;26.58;17.27;;;18.70;99.90;;;;;;5033633;28;20095;-76
2023/06/29 02:05:47;;;;;;;27.05;17.60;;;18.60;99.90;;;;;;5052062;28;20177;-76
2023/06/29 02:08:12;;;;;;;29.58;17.50;;;18.70;99.90;;;;;;5034075;28;20135;-76
2023/06/29 02:10:38;;;;;;;26.67;18.13;;;18.70;99.90;;;;;;5051312;28;20538;-76
2023/06/29 02:13:03;;;;;;;28.75;17.00;;;18.60;99.90;;;;;;5052028;28;20082;-76
2023/06/29 02:15:30;;;;;;;28.75;17.75;;;18.70;99.90;;;;;;5051661;28;20041;-76
2023/06/29 02:17:55;;;;;;;29.25;18.00;;;18.70;99.90;;;;;;5033008;28;20052;-77
2023/06/29 02:20:21;;;;;;;26.42;17.55;;;18.70;99.90;;;;;;5052051;28;20067;-76
2023/06/29 02:22:47;;;;;;;32.83;18.90;;;18.60;99.90;;;;;;5033852;28;20048;-76
2023/06/29 02:25:14;;;;;;;29.35;18.45;;;18.60;99.90;;;;;;5054812;28;20040;-76
2023/06/29 02:27:42;;;;;;;30.48;18.27;;;18.60;99.90;;;;;;5037536;28;20045;-76
2023/06/29 02:30:09;;;;;;;27.77;18.45;;;19.60;99.90;;;;;;5033866;28;20120;-76
2023/06/29 02:32:37;;;;;;;30.23;18.38;;;18.70;99.90;;;;;;5033890;28;20501;-76
2023/06/29 02:35:03;;;;;;;29.52;19.10;;;18.70;99.90;;;;;;5037806;28;20042;-76
2023/06/29 02:37:29;;;;;;;32.47;19.67;;;18.70;99.90;;;;;;5055225;28;20044;-76
2023/06/29 02:39:55;;;;;;;30.08;19.15;;;18.70;99.90;;;;;;5054522;28;20098;-76
2023/06/29 02:42:22;;;;;;;29.13;16.45;;;18.70;99.90;;;;;;5037504;28;20178;-76
2023/06/29 02:44:47;;;;;;;31.75;18.25;;;18.80;99.90;;;;;;5037255;28;20440;-76
2023/06/29 02:47:13;;;;;;;25.02;16.95;;;18.70;99.90;;;;;;5036386;28;20045;-76
2023/06/29 02:49:38;;;;;;;27.75;17.33;;;18.70;99.90;;;;;;5037145;28;20503;-77
2023/06/29 02:52:04;;;;;;;29.00;17.20;;;18.80;99.90;;;;;;5037253;28;20047;-76
2023/06/29 02:54:30;;;;;;;24.60;15.77;;;18.70;99.90;;;;;;5054870;28;20045;-76
2023/06/29 02:56:56;;;;;;;26.25;16.77;;;18.70;99.90;;;;;;5036675;28;20037;-76
2023/06/29 02:59:21;;;;;;;28.08;15.82;;;18.70;99.90;;;;;;5036846;28;20045;-76
2023/06/29 03:01:47;;;;;;;23.38;15.00;;;18.70;99.90;;;;;;5054834;28;20382;-76
2023/06/29 03:04:13;;;;;;;25.50;15.05;;;18.70;99.90;;;;;;5055134;28;20056;-76
2023/06/29 03:06:38;;;;;;;23.33;15.05;;;18.70;99.90;;;;;;5053600;28;20496;-76
2023/06/29 03:09:04;;;;;;;23.58;15.43;;;18.70;99.90;;;;;;5055015;28;20094;-76
2023/06/29 03:11:30;;;;;;;23.17;14.95;;;18.70;99.90;;;;;;5054587;28;20101;-76
2023/06/29 03:13:57;;;;;;;22.20;15.00;;;18.60;99.90;;;;;;5035769;28;20061;-77
2023/06/29 03:16:23;;;;;;;25.98;16.02;;;18.60;99.90;;;;;;5054619;28;20052;-76
2023/06/29 03:18:49;;;;;;;26.80;16.55;;;18.60;99.90;;;;;;5053749;28;20045;-76
2023/06/29 03:21:19;;;;;;;26.73;15.20;;;18.50;99.90;;;;;;5035791;28;20132;-76
2023/06/29 03:23:45;;;;;;;23.60;14.77;;;18.50;99.90;;;;;;5036893;28;20103;-76
2023/06/29 03:26:12;;;;;;;27.05;15.18;;;18.50;99.90;;;;;;5053439;28;20112;-76
2023/06/29 03:28:38;;;;;;;25.50;16.08;;;18.60;99.90;;;;;;5053871;28;20053;-77
2023/06/29 03:31:04;;;;;;;27.10;16.48;;;18.60;99.90;;;;;;5036808;28;20503;-77
2023/06/29 03:33:29;;;;;;;25.95;17.25;;;18.60;99.90;;;;;;5035542;28;20045;-77
2023/06/29 03:35:55;;;;;;;25.67;15.85;;;18.60;99.90;;;;;;5034944;28;20056;-77
2023/06/29 03:38:21;;;;;;;27.92;16.55;;;18.50;99.90;;;;;;5036257;28;20053;-77
2023/06/29 03:40:46;;;;;;;26.08;16.70;;;18.50;99.90;;;;;;5053437;28;20087;-76
2023/06/29 03:43:12;;;;;;;27.77;16.80;;;18.50;99.90;;;;;;5035265;28;20049;-77
2023/06/29 03:45:38;;;;;;;28.17;17.30;;;18.50;99.90;;;;;;5035282;28;20392;-76
2023/06/29 03:48:03;;;;;;;30.10;18.70;;;18.50;99.90;;;;;;5036644;28;20075;-76
2023/06/29 03:50:29;;;;;;;31.23;17.45;;;18.60;99.90;;;;;;5053139;28;20037;-76
2023/06/29 03:52:55;;;;;;;26.73;16.98;;;18.60;99.90;;;;;;5035401;28;20123;-76
2023/06/29 03:55:23;;;;;;;27.35;17.45;;;18.60;99.90;;;;;;5035855;28;20091;-76
2023/06/29 03:57:59;;;;;;;31.08;18.13;;;18.60;99.90;;;;;;5035806;28;20048;-77
2023/06/29 04:00:25;;;;;;;33.28;18.58;;;19.10;99.90;;;;;;5036888;28;20048;-76
2023/06/29 04:02:51;;;;;;;30.75;18.02;;;18.60;99.90;;;;;;5031772;28;20036;-76
2023/06/29 04:05:17;;;;;;;28.40;17.45;;;18.60;99.90;;;;;;5023851;28;20041;-76
2023/06/29 04:07:42;;;;;;;30.17;18.23;;;18.60;99.90;;;;;;5048587;28;20069;-76
2023/06/29 04:10:08;;;;;;;30.88;18.13;;;18.50;99.90;;;;;;5052453;28;20431;-76
2023/06/29 04:12:34;;;;;;;29.30;17.25;;;18.60;99.90;;;;;;5028601;28;20546;-76
2023/06/29 04:15:00;;;;;;;29.67;18.08;;;18.60;99.90;;;;;;5035716;28;20048;-76
2023/06/29 04:17:26;;;;;;;29.95;17.30;;;18.60;99.90;;;;;;5053068;28;20115;-76
2023/06/29 04:19:51;;;;;;;28.35;17.00;;;18.60;99.90;;;;;;5035256;28;20515;-76
2023/06/29 04:22:20;;;;;;;32.08;17.63;;;18.60;99.90;;;;;;5053101;28;20045;-76
2023/06/29 04:24:49;;;;;;;32.53;17.15;;;18.70;99.90;;;;;;5034776;28;20055;-76
2023/06/29 04:27:15;;;;;;;29.83;18.13;;;18.70;99.90;;;;;;5035393;28;20052;-77
2023/06/29 04:29:41;;;;;;;28.30;18.15;;;18.70;99.90;;;;;;5052685;28;20528;-76
2023/06/29 04:32:07;;;;;;;32.72;18.48;;;18.70;99.90;;;;;;5034027;28;20040;-76
2023/06/29 04:34:33;;;;;;;30.10;18.25;;;18.60;99.90;;;;;;5035362;28;20048;-76
2023/06/29 04:37:01;;;;;;;31.63;18.80;;;18.70;99.90;;;;;;5035280;28;20124;-76
2023/06/29 04:39:28;;;;;;;30.45;17.75;;;18.60;99.90;;;;;;5034666;28;20452;-76
2023/06/29 04:42:01;;;;;;;29.55;18.00;;;18.60;99.90;;;;;;5052050;28;20068;-76
2023/06/29 04:44:31;;;;;;;30.38;18.05;;;18.60;99.90;;;;;;5035729;28;20060;-77
2023/06/29 04:47:02;;;;;;;29.90;18.35;;;18.50;99.90;;;;;;5051492;28;20120;-76
2023/06/29 04:49:31;;;;;;;31.05;18.02;;;18.60;99.90;;;;;;5034674;28;20515;-76
2023/06/29 04:52:01;;;;;;;29.35;19.27;;;18.50;99.90;;;;;;5031034;28;20044;-77
2023/06/29 04:54:27;;;;;;;31.48;18.05;;;18.50;99.90;;;;;;5035678;28;20053;-76
2023/06/29 04:56:54;;;;;;;31.17;19.17;;;18.60;99.90;;;;;;5034264;28;20481;-76
2023/06/29 04:59:23;;;;;;;32.13;19.48;;;18.50;99.90;;;;;;5051317;28;20489;-76
2023/06/29 05:01:49;;;;;;;33.05;19.30;;;18.60;99.90;;;;;;5033658;28;20095;-76
2023/06/29 05:04:15;;;;;;;33.67;19.45;;;18.60;99.90;;;;;;5033371;28;20048;-78
2023/06/29 05:06:40;;;;;;;33.90;19.67;;;18.60;99.90;;;;;;5034152;28;20492;-78
2023/06/29 05:09:06;;;;;;;34.70;19.65;;;18.50;99.90;;;;;;5052467;28;20492;-79
2023/06/29 05:11:34;;;;;;;30.83;19.20;;;18.50;99.90;;;;;;5033244;28;20041;-78
2023/06/29 05:14:00;;;;;;;35.65;20.02;;;18.50;99.90;;;;;;5033847;28;20131;-79
2023/06/29 05:16:26;;;;;;;31.38;18.95;;;18.50;99.90;;;;;;5034658;28;20412;-79
2023/06/29 05:18:52;;;;;;;33.85;19.80;;;18.50;99.90;;;;;;5033287;28;20144;-75
2023/06/29 05:21:18;;;;;;;32.20;18.85;;;18.50;99.90;;;;;;5029270;28;20548;-76
2023/06/29 05:23:43;;;;;;;33.63;19.55;;;18.60;99.90;;;;;;5034137;28;20098;-77
2023/06/29 05:26:09;;;;;;;30.88;18.52;;;18.60;99.90;;;;;;5052205;28;20045;-75
2023/06/29 05:28:41;;;;;;;36.83;19.02;;;18.70;99.90;;;;;;5032903;28;20510;-74
2023/06/29 05:31:07;;;;;;;32.08;19.00;;;18.70;99.90;;;;;;5033761;28;20120;-74
2023/06/29 05:33:33;;;;;;;31.33;19.65;;;18.70;99.90;;;;;;5032511;28;20143;-76
2023/06/29 05:35:59;;;;;;;32.60;18.58;;;18.70;99.90;;;;;;5049413;28;20037;-77
2023/06/29 05:38:25;;;;;;;31.13;18.27;;;18.70;99.90;;;;;;5028877;28;20049;-78
2023/06/29 05:40:51;;;;;;;31.20;18.25;;;18.80;99.90;;;;;;5028367;28;20908;-76
2023/06/29 05:43:17;;;;;;;33.15;18.77;;;18.80;99.90;;;;;;5033088;28;20573;-76
2023/06/29 05:45:45;;;;;;;33.75;19.17;;;18.80;99.90;;;;;;5039873;28;20033;-76
2023/06/29 05:48:14;;;;;;;31.25;18.70;;;19.80;99.90;;;;;;5034491;28;20045;-75
2023/06/29 05:50:39;;;;;;;30.88;17.65;;;18.90;99.90;;;;;;5043089;28;20032;-74
2023/06/29 05:53:05;;;;;;;31.73;18.05;;;18.90;99.90;;;;;;5044429;28;20573;-75
2023/06/29 05:55:31;;;;;;;34.33;17.95;;;18.90;99.90;;;;;;5040299;28;20037;-77
2023/06/29 05:57:57;;;;;;;30.60;17.33;;;18.90;99.90;;;;;;5039551;28;20685;-75
2023/06/29 06:00:23;;;;;;;30.92;18.20;;;19.00;99.90;;;;;;5032837;28;20045;-76
2023/06/29 06:02:49;;;;;;;30.00;18.13;;;19.00;99.90;;;;;;5045179;28;20044;-76
2023/06/29 06:05:15;;;;;;;28.55;17.90;;;19.00;99.90;;;;;;5033365;28;20473;-76
2023/06/29 06:07:41;;;;;;;30.98;17.73;;;19.10;99.90;;;;;;5036538;28;20370;-77
2023/06/29 06:10:07;;;;;;;27.92;17.30;;;19.10;99.90;;;;;;5048620;28;20491;-75
2023/06/29 06:12:32;;;;;;;31.65;18.75;;;19.10;99.90;;;;;;5047876;28;20484;-78
2023/06/29 06:14:58;;;;;;;32.15;17.80;;;19.10;99.90;;;;;;5059326;28;20051;-77
2023/06/29 06:17:24;;;;;;;30.20;17.75;;;19.10;99.90;;;;;;5028727;28;21524;-75
2023/06/29 06:19:50;;;;;;;33.13;18.83;;;19.20;99.90;;;;;;5051593;28;20052;-76
2023/06/29 06:22:19;;;;;;;32.70;17.95;;;19.20;99.90;;;;;;5025181;28;20413;-77
2023/06/29 06:24:45;;;;;;;30.25;17.73;;;19.20;99.90;;;;;;5034892;28;20062;-74
2023/06/29 06:27:11;;;;;;;31.88;18.20;;;19.20;99.90;;;;;;5036759;28;20103;-76
2023/06/29 06:29:37;;;;;;;32.90;17.23;;;19.20;99.90;;;;;;5051953;28;20042;-75
2023/06/29 06:32:03;;;;;;;31.70;17.40;;;19.10;99.90;;;;;;5034629;28;20131;-74
2023/06/29 06:34:30;;;;;;;28.40;17.40;;;19.20;99.90;;;;;;5073205;28;20120;-74
2023/06/29 06:36:57;;;;;;;31.92;17.73;;;19.10;99.90;;;;;;5039250;28;20404;-74
2023/06/29 06:39:23;;;;;;;30.38;17.20;;;19.20;99.90;;;;;;5055082;28;20057;-74
2023/06/29 06:41:49;;;;;;;27.73;17.00;;;19.20;99.90;;;;;;5054970;28;20561;-74
2023/06/29 06:44:15;;;;;;;28.35;17.23;;;19.30;99.90;;;;;;5054582;28;20109;-74
2023/06/29 06:46:44;;;;;;;29.10;17.58;;;19.20;99.90;;;;;;5073510;28;20041;-75
2023/06/29 06:49:09;;;;;;;28.35;17.48;;;19.20;99.90;;;;;;5038071;28;20404;-78
2023/06/29 06:51:35;;;;;;;29.95;18.48;;;19.20;99.90;;;;;;5045734;28;20155;-75
2023/06/29 06:54:01;;;;;;;28.85;18.58;;;19.20;99.90;;;;;;5030139;28;20137;-76
2023/06/29 06:56:26;;;;;;;28.58;17.88;;;19.20;99.90;;;;;;5022373;28;20519;-78
2023/06/29 06:58:52;;;;;;;32.22;18.33;;;19.20;99.90;;;;;;5044915;28;20131;-77
2023/06/29 07:01:23;;;;;;;30.60;17.85;;;19.20;99.90;;;;;;5047655;28;20079;-77
2023/06/29 07:03:52;;;;;;;28.40;17.33;;;19.20;99.90;;;;;;5053564;28;20049;-76
2023/06/29 07:06:18;;;;;;;27.42;17.08;;;19.20;99.90;;;;;;5053408;28;20041;-77
2023/06/29 07:08:44;;;;;;;30.08;17.65;;;19.20;99.90;;;;;;5052026;28;20049;-77
2023/06/29 07:11:10;;;;;;;29.40;17.52;;;19.40;99.90;;;;;;5049559;28;20037;-77
2023/06/29 07:13:36;;;;;;;26.85;17.17;;;19.40;99.90;;;;;;5035054;28;20045;-77
2023/06/29 07:16:01;;;;;;;27.52;17.60;;;19.50;99.90;;;;;;5049923;28;20049;-79
2023/06/29 07:18:30;;;;;;;27.10;17.33;;;19.50;99.90;;;;;;5033168;28;20041;-80
2023/06/29 07:20:56;;;;;;;28.48;17.75;;;19.50;99.90;;;;;;5016353;28;20057;-78
2023/06/29 07:23:21;;;;;;;30.40;17.85;;;19.50;99.90;;;;;;5040315;28;20068;-79
2023/06/29 07:25:47;;;;;;;26.52;17.13;;;19.60;99.90;;;;;;5053799;28;20138;-78
2023/06/29 07:28:13;;;;;;;24.92;16.38;;;19.70;99.90;;;;;;5036513;28;20424;-79
2023/06/29 07:30:38;;;;;;;29.13;18.15;;;19.70;99.90;;;;;;5036121;28;20485;-79
2023/06/29 07:33:04;;;;;;;27.50;16.35;;;19.70;99.90;;;;;;5054420;28;20085;-84
2023/06/29 07:35:30;;;;;;;28.00;17.40;;;19.70;99.90;;;;;;5036183;28;20041;-79
2023/06/29 07:37:55;;;;;;;29.42;18.88;;;19.90;99.90;;;;;;5053245;28;20041;-76
2023/06/29 07:40:22;;;;;;;29.63;17.75;;;19.80;99.90;;;;;;5053931;28;20045;-76
2023/06/29 07:42:47;;;;;;;29.20;18.25;;;19.90;99.90;;;;;;5035523;28;20083;-73
2023/06/29 07:45:13;;;;;;;28.02;18.10;;;19.90;99.90;;;;;;5035816;28;20076;-75
2023/06/29 07:47:39;;;;;;;30.83;18.20;;;20.00;99.90;;;;;;5053265;28;20037;-75
2023/06/29 07:50:06;;;;;;;30.17;17.27;;;19.90;99.90;;;;;;5035557;28;20128;-75
2023/06/29 07:52:31;;;;;;;30.08;18.25;;;19.90;99.90;;;;;;5035692;28;20128;-76
2023/06/29 07:54:57;;;;;;;33.85;19.48;;;19.80;99.90;;;;;;5053021;28;20128;-75
2023/06/29 07:57:23;;;;;;;29.65;18.52;;;19.70;99.90;;;;;;5054189;28;20106;-75
2023/06/29 07:59:49;;;;;;;30.50;19.52;;;19.80;99.90;;;;;;5030393;28;20084;-74
2023/06/29 08:02:14;;;;;;;32.53;19.02;;;19.70;99.90;;;;;;5021537;28;20404;-73
2023/06/29 08:04:40;;;;;;;32.60;18.65;;;19.60;99.90;;;;;;5038819;28;20396;-74
2023/06/29 08:07:09;;;;;;;30.85;18.38;;;19.50;99.90;;;;;;5053639;28;20049;-73
2023/06/29 08:09:35;;;;;;;32.33;19.17;;;19.50;99.90;;;;;;5042733;28;20129;-74
2023/06/29 08:12:01;;;;;;;33.20;20.15;;;19.50;99.90;;;;;;5025751;28;20131;-76
2023/06/29 08:14:26;;;;;;;34.58;19.48;;;19.50;99.90;;;;;;5029959;28;20047;-78
2023/06/29 08:16:55;;;;;;;32.72;19.90;;;19.50;99.90;;;;;;5045531;28;20097;-74
2023/06/29 08:19:21;;;;;;;35.58;20.23;;;19.40;99.90;;;;;;5034622;28;20057;-74
2023/06/29 08:21:47;;;;;;;32.13;19.50;;;19.30;99.90;;;;;;5033818;28;20166;-74
2023/06/29 08:24:14;;;;;;;34.17;20.67;;;19.30;99.90;;;;;;5051498;28;20124;-74
2023/06/29 08:26:40;;;;;;;36.55;20.73;;;19.20;99.90;;;;;;5052642;28;20056;-74
2023/06/29 08:29:06;;;;;;;31.88;19.67;;;19.20;99.90;;;;;;5052855;28;20045;-74
2023/06/29 08:31:34;;;;;;;31.80;20.38;;;19.20;99.90;;;;;;5033392;28;20084;-74
2023/06/29 08:34:00;;;;;;;38.05;21.80;;;19.20;99.90;;;;;;5032635;28;20247;-74
2023/06/29 08:36:29;;;;;;;35.08;20.80;;;19.10;99.90;;;;;;5051331;28;20045;-75
2023/06/29 08:38:55;;;;;;;38.53;21.50;;;19.10;99.90;;;;;;5029168;28;20049;-75
2023/06/29 08:41:21;;;;;;;34.92;20.98;;;19.10;99.90;;;;;;5031327;28;20517;-75
2023/06/29 08:43:47;;;;;;;35.80;21.60;;;19.00;99.90;;;;;;5030185;28;20099;-75
2023/06/29 08:46:13;;;;;;;30.08;17.98;;;19.10;99.90;;;;;;5032029;28;20041;-76
2023/06/29 08:48:44;;;;;;;30.73;20.08;;;19.20;99.90;;;;;;5032487;28;20433;-77
2023/06/29 08:51:13;;;;;;;33.72;20.50;;;19.10;99.90;;;;;;5031347;28;20103;-77
2023/06/29 08:53:43;;;;;;;30.75;17.80;;;19.00;99.90;;;;;;5032793;28;20045;-77
2023/06/29 08:56:10;;;;;;;28.98;17.88;;;18.90;99.90;;;;;;5032798;28;20096;-78
2023/06/29 08:58:38;;;;;;;29.38;17.95;;;18.80;99.90;;;;;;5030604;28;20051;-78
2023/06/29 09:01:05;;;;;;;30.70;18.98;;;18.90;99.90;;;;;;5033082;28;20055;-78
2023/06/29 09:03:36;;;;;;;33.17;20.42;;;18.90;99.90;;;;;;5031465;28;20386;-78
2023/06/29 09:06:03;;;;;;;38.28;22.15;;;18.90;99.90;;;;;;5031004;28;20054;-78
2023/06/29 09:08:29;;;;;;;38.92;22.42;;;18.90;99.90;;;;;;5029516;28;20045;-78
2023/06/29 09:10:55;;;;;;;33.20;21.23;;;18.80;99.90;;;;;;5031302;28;20452;-78
2023/06/29 09:13:26;;;;;;;34.47;20.67;;;18.80;99.90;;;;;;5032339;28;20049;-77
2023/06/29 09:15:54;;;;;;;33.10;21.25;;;18.80;99.90;;;;;;5030880;28;20164;-76
2023/06/29 09:18:24;;;;;;;35.95;21.38;;;18.90;99.90;;;;;;5032971;28;20103;-77
2023/06/29 09:20:55;;;;;;;37.50;22.33;;;18.80;99.90;;;;;;5030642;28;20047;-79
2023/06/29 09:23:21;;;;;;;33.53;20.63;;;18.70;99.90;;;;;;5030654;28;20130;-77
2023/06/29 09:25:52;;;;;;;37.03;23.15;;;18.80;99.90;;;;;;5031740;28;20047;-79
2023/06/29 09:28:18;;;;;;;37.92;21.88;;;18.80;99.90;;;;;;5018767;28;20098;-76
2023/06/29 09:30:44;;;;;;;37.40;22.35;;;18.90;99.90;;;;;;5015606;28;20482;-76
2023/06/29 09:33:11;;;;;;;36.75;22.42;;;18.90;99.90;;;;;;5020225;28;20053;-77
2023/06/29 09:35:49;;;;;;;35.53;22.48;;;18.90;99.90;;;;;;5028766;28;20042;-76
2023/06/29 09:38:16;;;;;;;41.17;24.73;;;19.00;99.90;;;;;;5022947;28;20068;-78
2023/06/29 09:40:54;;;;;;;39.60;24.05;;;19.00;99.90;;;;;;5024747;28;20045;-78
2023/06/29 09:43:27;;;;;;;41.83;25.00;;;19.00;99.90;;;;;;5010567;28;20095;-76
2023/06/29 09:46:20;;;;;;;41.72;26.17;;;19.20;99.90;;;;;;5017963;28;20033;-80
2023/06/29 09:48:47;;;;;;;42.63;25.23;;;19.30;99.90;;;;;;5026680;28;20058;-78
2023/06/29 09:51:22;;;;;;;46.13;28.08;;;19.40;99.90;;;;;;5028563;28;20038;-78
2023/06/29 09:53:49;;;;;;;42.25;26.02;;;19.60;99.90;;;;;;5025828;28;20077;-78
2023/06/29 09:56:16;;;;;;;43.78;26.90;;;19.80;99.90;;;;;;5010300;28;20483;-74
2023/06/29 09:58:42;;;;;;;41.97;25.40;;;19.90;99.90;;;;;;5010269;28;20382;-77
2023/06/29 10:01:09;;;;;;;43.00;26.65;;;20.00;99.90;;;;;;5027505;28;20041;-75
2023/06/29 10:03:35;;;;;;;45.33;27.17;;;20.20;99.90;;;;;;5013823;28;20116;-76
2023/06/29 10:06:11;;;;;;;44.95;26.90;;;20.20;99.90;;;;;;5030666;28;20128;-78
2023/06/29 10:08:39;;;;;;;45.28;27.45;;;20.20;99.90;;;;;;5027718;28;20053;-75
2023/06/29 10:11:05;;;;;;;46.42;27.83;;;20.10;99.90;;;;;;5020248;28;20045;-76
2023/06/29 10:13:47;;;;;;;44.72;27.00;;;20.10;99.90;;;;;;5020272;28;20053;-76
2023/06/29 10:16:16;;;;;;;46.70;29.50;;;20.10;99.90;;;;;;5014716;28;20077;-78
2023/06/29 10:18:46;;;;;;;46.45;29.80;;;20.20;99.90;;;;;;5028174;28;20506;-75
2023/06/29 10:21:12;;;;;;;45.33;28.30;;;20.30;99.90;;;;;;5030674;28;20108;-75
2023/06/29 10:23:40;;;;;;;47.15;28.17;;;20.40;99.90;;;;;;5029918;28;20048;-75
2023/06/29 10:26:07;;;;;;;48.42;29.38;;;20.40;99.90;;;;;;5030690;28;20049;-76
2023/06/29 10:28:34;;;;;;;50.50;30.25;;;20.30;99.90;;;;;;5013161;28;20041;-76
2023/06/29 10:31:00;;;;;;;45.78;30.10;;;20.20;99.90;;;;;;5011636;28;20049;-76
2023/06/29 10:33:26;;;;;;;47.40;29.73;;;20.20;99.90;;;;;;5010213;28;20215;-75
2023/06/29 10:36:03;;;;;;;46.50;29.00;;;20.20;99.90;;;;;;5010617;28;20045;-75
2023/06/29 10:38:35;;;;;;;48.38;30.08;;;20.20;99.90;;;;;;5013384;28;20088;-75
2023/06/29 10:41:25;;;;;;;49.40;30.73;;;20.20;99.90;;;;;;5015913;28;20041;-75
2023/06/29 10:43:59;;;;;;;43.85;29.73;;;20.30;99.90;;;;;;5017436;28;20376;-76
2023/06/29 10:46:44;;;;;;;47.88;30.23;;;20.40;99.90;;;;;;5023572;28;20041;-75
2023/06/29 10:49:29;;;;;;;48.33;30.58;;;20.60;99.90;;;;;;5019072;28;20046;-75
2023/06/29 10:52:03;;;;;;;49.00;31.55;;;20.70;99.90;;;;;;5017652;28;20045;-76
2023/06/29 10:54:29;;;;;;;52.15;32.00;;;20.80;99.90;;;;;;5019826;28;20041;-76
2023/06/29 10:57:05;;;;;;;47.03;31.15;;;20.80;99.90;;;;;;5020592;28;20378;-75
2023/06/29 10:59:33;;;;;;;44.40;29.95;;;20.80;99.90;;;;;;5021195;28;20084;-76
2023/06/29 11:01:59;;;;;;;41.55;28.90;;;20.90;99.90;;;;;;5018109;28;20049;-74
2023/06/29 11:04:25;;;;;;;40.65;27.55;;;20.90;99.90;;;;;;5021190;28;20151;-75
2023/06/29 11:06:51;;;;;;;37.78;24.15;;;21.00;99.90;;;;;;5018825;28;20124;-75
2023/06/29 11:09:19;;;;;;;34.88;21.48;;;21.10;99.90;;;;;;5018782;28;20045;-76
2023/06/29 11:11:47;;;;;;;35.88;24.15;;;21.20;99.90;;;;;;5018109;28;20038;-78
2023/06/29 11:14:17;;;;;;;32.88;23.30;;;21.30;99.90;;;;;;5013742;28;20053;-76
2023/06/29 11:16:43;;;;;;;32.47;20.90;;;21.30;99.90;;;;;;5013220;28;20046;-76
2023/06/29 11:19:08;;;;;;;30.08;20.52;;;21.20;99.90;;;;;;5012077;28;20513;-74
2023/06/29 11:21:34;;;;;;;31.77;21.65;;;21.20;99.90;;;;;;5014419;28;20176;-76
2023/06/29 11:24:00;;;;;;;35.03;21.48;;;21.20;99.90;;;;;;5012870;28;20108;-75
2023/06/29 11:26:29;;;;;;;30.33;20.95;;;21.30;99.90;;;;;;5004127;28;20046;-76
2023/06/29 11:28:55;;;;;;;34.30;22.13;;;21.50;99.90;;;;;;4994742;28;20045;-75
2023/06/29 11:31:21;;;;;;;32.63;21.33;;;21.60;99.90;;;;;;5012755;28;20045;-77
2023/06/29 11:33:48;;;;;;;36.13;22.13;;;21.80;99.90;;;;;;5000532;28;20529;-77
2023/06/29 11:36:14;;;;;;;35.15;21.23;;;22.10;99.90;;;;;;4993775;28;20074;-76
2023/06/29 11:38:40;;;;;;;36.88;20.80;;;22.50;99.90;;;;;;5001191;28;20065;-76
2023/06/29 11:41:06;;;;;;;32.20;20.58;;;22.60;99.90;;;;;;5012618;28;20060;-74
2023/06/29 11:43:35;;;;;;;31.23;20.02;;;22.70;99.90;;;;;;5016273;28;20046;-78
2023/06/29 11:46:02;;;;;;;32.13;20.45;;;22.50;99.90;;;;;;5021544;28;20382;-79
2023/06/29 11:48:29;;;;;;;28.25;19.27;;;22.70;99.90;;;;;;5023193;28;20108;-76
2023/06/29 11:51:01;;;;;;;29.65;19.45;;;22.70;99.90;;;;;;5021062;28;20479;-74
2023/06/29 11:53:28;;;;;;;30.90;19.55;;;22.30;99.90;;;;;;5021651;28;20124;-74
2023/06/29 11:55:54;;;;;;;33.65;20.00;;;22.20;99.90;;;;;;5020686;28;20037;-76
2023/06/29 11:58:20;;;;;;;31.77;19.90;;;22.10;99.90;;;;;;5021425;28;20489;-77
2023/06/29 12:00:56;;;;;;;30.10;20.73;;;22.20;99.90;;;;;;5019326;28;20051;-76
2023/06/29 12:03:23;;;;;;;32.45;20.35;;;22.20;99.90;;;;;;5022373;28;20460;-76
2023/06/29 12:05:48;;;;;;;31.35;19.95;;;22.20;99.90;;;;;;5022434;28;20088;-76
2023/06/29 12:08:14;;;;;;;35.63;21.27;;;22.20;99.90;;;;;;5021981;28;20053;-76
2023/06/29 12:10:40;;;;;;;33.90;20.98;;;22.10;99.90;;;;;;5021418;28;20471;-75
2023/06/29 12:13:09;;;;;;;34.58;21.50;;;22.10;99.90;;;;;;5020245;28;20054;-76
2023/06/29 12:15:35;;;;;;;31.63;20.30;;;22.00;99.90;;;;;;5020955;28;20041;-76
2023/06/29 12:18:10;;;;;;;37.50;20.85;;;22.10;99.90;;;;;;5022353;28;20044;-73
2023/06/29 12:20:46;;;;;;;38.78;22.15;;;22.20;99.90;;;;;;5020627;28;20041;-72
2023/06/29 12:23:13;;;;;;;;;;;22.40;99.90;;;;;;5018550;28;20049;-72
2023/06/29 12:25:50;;;;;;;34.67;21.42;;;22.60;99.90;;;;;;5022935;28;19974;-70
2023/06/29 12:28:16;;;;;;;35.45;22.85;;;22.60;99.90;;;;;;5025074;28;20053;-70
2023/06/29 12:30:42;;;;;;;39.63;22.08;;;22.60;99.90;;;;;;5030148;28;20045;-75